Time;durP1;ratioP1;P1;durP2;ratioP2;P2;SDS_P1;SDS_P2;PMS_P1;PMS_P2;Temp;Humidity;BMP_temperature;BMP_pressure;BME280_temperature;BME280_humidity;BME280_pressure;Samples;Min_cycle;Max_cycle;Signal;HPM_P1;HPM_P2
2021/04/26 00:01:48;;;;;;;4.27;1.93;;;3.90;99.90;;;;;;5022562;28;20198;-77
2021/04/26 00:04:14;;;;;;;1.70;1.20;;;3.90;99.90;;;;;;5022194;28;20424;-76
2021/04/26 00:06:41;;;;;;;1.77;1.30;;;3.90;99.90;;;;;;5021788;28;20210;-77
2021/04/26 00:09:07;;;;;;;1.90;1.30;;;3.90;99.90;;;;;;5022371;28;20202;-76
2021/04/26 00:11:34;;;;;;;2.50;1.23;;;3.80;99.90;;;;;;5021819;28;20580;-76
2021/04/26 00:14:00;;;;;;;4.67;1.53;;;3.80;99.90;;;;;;5025269;28;20217;-75
2021/04/26 00:16:26;;;;;;;2.87;1.60;;;3.80;99.90;;;;;;5042374;28;20225;-77
2021/04/26 00:18:54;;;;;;;2.10;1.07;;;3.70;99.90;;;;;;5041292;28;20194;-76
2021/04/26 00:21:20;;;;;;;5.53;1.20;;;3.70;99.90;;;;;;5041871;28;20210;-76
2021/04/26 00:23:46;;;;;;;1.57;1.10;;;3.70;99.90;;;;;;5032447;28;20229;-77
2021/04/26 00:26:12;;;;;;;4.13;1.40;;;3.60;99.90;;;;;;5022263;28;20194;-77
2021/04/26 00:28:39;;;;;;;2.70;1.30;;;3.60;99.90;;;;;;5022094;28;20207;-76
2021/04/26 00:31:05;;;;;;;4.07;1.33;;;3.50;99.90;;;;;;5022360;28;20238;-77
2021/04/26 00:33:31;;;;;;;1.80;1.17;;;3.50;99.90;;;;;;5021710;28;20226;-76
2021/04/26 00:35:58;;;;;;;1.63;1.20;;;3.50;99.90;;;;;;5021547;28;20232;-76
2021/04/26 00:38:25;;;;;;;3.40;1.47;;;3.40;99.90;;;;;;5021279;28;20273;-77
2021/04/26 00:40:51;;;;;;;2.60;1.57;;;3.40;99.90;;;;;;5021723;28;20198;-76
2021/04/26 00:43:17;;;;;;;3.17;1.40;;;3.40;99.90;;;;;;5021545;28;20569;-76
2021/04/26 00:45:43;;;;;;;2.63;1.40;;;3.40;99.90;;;;;;5021672;28;20234;-77
2021/04/26 00:48:10;;;;;;;2.23;1.30;;;3.30;99.90;;;;;;5021920;28;20210;-75
2021/04/26 00:50:38;;;;;;;2.90;1.40;;;3.30;99.90;;;;;;5020654;28;20205;-76
2021/04/26 00:53:05;;;;;;;2.77;1.40;;;3.30;99.90;;;;;;5020891;28;20674;-77
2021/04/26 00:55:35;;;;;;;2.40;1.20;;;3.20;99.90;;;;;;5021786;28;20198;-77
2021/04/26 00:58:02;;;;;;;2.10;1.33;;;3.20;99.90;;;;;;5021898;28;20218;-76
2021/04/26 01:00:30;;;;;;;3.13;1.80;;;3.20;99.90;;;;;;5021351;28;20214;-77
2021/04/26 01:02:56;;;;;;;3.03;1.70;;;3.10;99.90;;;;;;5020866;28;20246;-76
2021/04/26 01:05:27;;;;;;;4.13;1.80;;;3.10;99.90;;;;;;5021642;28;20229;-77
2021/04/26 01:07:54;;;;;;;2.10;1.90;;;3.10;99.90;;;;;;5021360;28;20202;-77
2021/04/26 01:10:24;;;;;;;5.83;1.40;;;3.00;99.90;;;;;;5021802;28;20290;-77
2021/04/26 01:13:08;;;;;;;1.90;1.23;;;3.00;99.90;;;;;;5021619;28;20296;-77
2021/04/26 01:15:41;;;;;;;2.47;1.43;;;2.90;99.90;;;;;;5020646;28;20203;-77
2021/04/26 01:18:15;;;;;;;1.77;1.30;;;2.90;99.90;;;;;;5022006;28;20376;-77
2021/04/26 01:21:11;;;;;;;2.03;1.20;;;2.90;99.90;;;;;;5020950;28;20206;-78
2021/04/26 01:24:15;;;;;;;3.27;1.47;;;2.90;99.90;;;;;;5020630;28;20218;-75
2021/04/26 01:27:04;;;;;;;1.77;1.40;;;2.90;99.90;;;;;;5021220;28;20210;-77
2021/04/26 01:29:56;;;;;;;2.43;1.53;;;2.80;99.90;;;;;;5021226;28;20245;-76
2021/04/26 01:32:30;;;;;;;3.03;1.63;;;2.80;99.90;;;;;;5021326;28;20195;-77
2021/04/26 01:34:58;;;;;;;6.00;1.70;;;2.80;99.90;;;;;;5021073;28;20623;-77
2021/04/26 01:37:27;;;;;;;4.57;1.70;;;2.70;99.90;;;;;;5020896;28;20202;-77
2021/04/26 01:39:55;;;;;;;4.90;1.60;;;2.70;99.90;;;;;;5021965;28;20206;-77
2021/04/26 01:42:22;;;;;;;1.70;1.50;;;2.60;99.90;;;;;;5020237;28;20203;-76
2021/04/26 01:44:48;;;;;;;3.93;1.67;;;2.60;99.90;;;;;;5023936;28;20229;-78
2021/04/26 01:47:16;;;;;;;2.13;1.63;;;2.60;99.90;;;;;;5024499;28;20701;-75
2021/04/26 01:49:43;;;;;;;3.40;1.60;;;2.50;99.90;;;;;;5024532;28;20520;-76
2021/04/26 01:52:11;;;;;;;3.03;1.57;;;2.50;99.90;;;;;;5025088;28;20207;-76
2021/04/26 01:54:39;;;;;;;2.57;1.70;;;2.50;99.90;;;;;;5024079;28;20199;-78
2021/04/26 01:57:06;;;;;;;1.97;1.40;;;2.50;99.90;;;;;;5023668;28;20206;-78
2021/04/26 01:59:34;;;;;;;4.97;2.23;;;2.50;99.90;;;;;;5027646;28;20213;-78
2021/04/26 02:02:01;;;;;;;2.83;1.60;;;2.40;99.90;;;;;;5044267;28;20386;-78
2021/04/26 02:04:29;;;;;;;4.83;2.13;;;2.40;99.90;;;;;;5043091;28;20224;-79
2021/04/26 02:06:57;;;;;;;1.77;1.20;;;2.40;99.90;;;;;;5043242;28;20228;-78
2021/04/26 02:09:24;;;;;;;3.53;1.40;;;2.40;99.90;;;;;;5031574;28;20230;-77
2021/04/26 02:11:51;;;;;;;2.67;1.50;;;2.40;99.90;;;;;;5023278;28;20202;-76
2021/04/26 02:14:18;;;;;;;2.70;1.70;;;2.40;99.90;;;;;;5023926;28;20230;-76
2021/04/26 02:16:45;;;;;;;3.33;1.90;;;2.30;99.90;;;;;;5023321;28;20625;-77
2021/04/26 02:19:12;;;;;;;2.67;1.50;;;2.30;99.90;;;;;;5023344;28;20210;-77
2021/04/26 02:21:40;;;;;;;3.13;1.70;;;2.30;99.90;;;;;;5024344;28;20203;-77
2021/04/26 02:24:09;;;;;;;3.33;2.23;;;2.30;99.90;;;;;;5024124;28;20614;-76
2021/04/26 02:26:35;;;;;;;3.90;1.77;;;2.20;99.90;;;;;;5022956;28;20211;-77
2021/04/26 02:29:02;;;;;;;2.73;1.50;;;2.20;99.90;;;;;;5024274;28;20237;-76
2021/04/26 02:31:33;;;;;;;1.80;1.57;;;2.20;99.90;;;;;;5022995;28;20256;-78
2021/04/26 02:34:04;;;;;;;2.50;2.00;;;2.20;99.90;;;;;;5023969;28;20226;-75
2021/04/26 02:36:35;;;;;;;3.40;1.60;;;2.20;99.90;;;;;;5024118;28;20207;-75
2021/04/26 02:39:06;;;;;;;5.87;1.80;;;2.10;99.90;;;;;;5023492;28;20218;-76
2021/04/26 02:41:35;;;;;;;2.23;1.70;;;2.10;99.90;;;;;;5023961;28;20246;-75
2021/04/26 02:44:06;;;;;;;2.33;1.60;;;2.10;99.90;;;;;;5024049;28;20286;-75
2021/04/26 02:46:34;;;;;;;2.23;1.50;;;2.10;99.90;;;;;;5023689;28;20512;-76
2021/04/26 02:49:03;;;;;;;3.63;2.17;;;2.10;99.90;;;;;;5024174;28;20566;-75
2021/04/26 02:51:32;;;;;;;2.67;1.40;;;2.00;99.90;;;;;;5023988;28;20380;-74
2021/04/26 02:53:59;;;;;;;1.70;1.40;;;2.00;99.90;;;;;;5023457;28;20253;-76
2021/04/26 02:56:26;;;;;;;2.10;1.40;;;2.00;99.90;;;;;;5022951;28;20202;-76
2021/04/26 02:58:57;;;;;;;1.83;1.37;;;2.00;99.90;;;;;;5023748;28;20206;-77
2021/04/26 03:01:24;;;;;;;1.23;1.13;;;2.00;99.90;;;;;;5022941;28;20202;-77
2021/04/26 03:03:51;;;;;;;3.33;1.43;;;1.90;99.90;;;;;;5023308;28;20485;-76
2021/04/26 03:06:18;;;;;;;2.17;1.67;;;1.90;99.90;;;;;;5024165;28;20199;-76
2021/04/26 03:08:46;;;;;;;3.73;1.67;;;1.90;99.90;;;;;;5023473;28;20206;-78
2021/04/26 03:11:15;;;;;;;2.70;1.83;;;1.90;99.90;;;;;;5028007;28;20301;-76
2021/04/26 03:13:43;;;;;;;2.50;1.50;;;1.90;99.90;;;;;;5042973;28;20233;-75
2021/04/26 03:16:11;;;;;;;2.07;1.70;;;1.80;99.90;;;;;;5043847;28;20617;-76
2021/04/26 03:18:39;;;;;;;1.83;1.30;;;1.80;99.90;;;;;;5032988;28;20210;-75
2021/04/26 03:21:09;;;;;;;1.67;1.57;;;1.80;99.90;;;;;;5023971;28;20318;-76
2021/04/26 03:23:36;;;;;;;3.17;1.70;;;1.80;99.90;;;;;;5023754;28;20774;-74
2021/04/26 03:26:05;;;;;;;2.00;1.43;;;1.80;99.90;;;;;;5023490;28;20793;-78
2021/04/26 03:28:34;;;;;;;4.13;2.20;;;1.80;99.90;;;;;;5023200;28;20429;-75
2021/04/26 03:31:04;;;;;;;1.90;1.30;;;1.70;99.90;;;;;;5023370;28;20298;-77
2021/04/26 03:33:33;;;;;;;3.40;1.60;;;1.70;99.90;;;;;;5022887;28;20237;-77
2021/04/26 03:36:00;;;;;;;2.07;1.40;;;1.70;99.90;;;;;;5022511;28;20241;-77
2021/04/26 03:38:27;;;;;;;5.23;2.10;;;1.70;99.90;;;;;;5022725;28;20199;-77
2021/04/26 03:40:54;;;;;;;2.47;1.60;;;1.60;99.90;;;;;;5022536;28;20247;-77
2021/04/26 03:43:21;;;;;;;2.77;1.60;;;1.60;99.90;;;;;;5022379;28;20203;-76
2021/04/26 03:45:49;;;;;;;2.63;2.13;;;1.60;99.90;;;;;;5022683;28;20225;-77
2021/04/26 03:48:15;;;;;;;3.13;2.13;;;1.60;99.90;;;;;;5022660;28;20207;-77
2021/04/26 03:50:42;;;;;;;2.73;1.47;;;1.60;99.90;;;;;;5022298;28;20215;-76
2021/04/26 03:53:09;;;;;;;2.30;1.50;;;1.50;99.90;;;;;;5022689;28;20315;-76
2021/04/26 03:55:35;;;;;;;1.50;1.30;;;1.50;99.90;;;;;;5022041;28;20210;-76
2021/04/26 03:58:01;;;;;;;2.93;1.40;;;1.50;99.90;;;;;;5021758;28;20253;-76
2021/04/26 04:00:28;;;;;;;4.73;2.50;;;1.50;99.90;;;;;;5022028;28;20217;-76
2021/04/26 04:02:54;;;;;;;4.23;2.30;;;1.40;99.90;;;;;;5021867;28;20606;-76
2021/04/26 04:05:21;;;;;;;4.87;2.20;;;1.40;99.90;;;;;;5022473;28;20214;-77
2021/04/26 04:07:48;;;;;;;2.63;1.90;;;1.40;99.90;;;;;;5022033;28;20198;-77
2021/04/26 04:10:16;;;;;;;4.43;1.73;;;1.40;99.90;;;;;;5022057;28;20206;-76
2021/04/26 04:12:42;;;;;;;3.73;2.10;;;1.40;99.90;;;;;;5021972;28;20202;-75
2021/04/26 04:15:11;;;;;;;2.87;1.90;;;1.40;99.90;;;;;;5022502;28;20206;-76
2021/04/26 04:17:39;;;;;;;4.13;1.90;;;1.30;99.90;;;;;;5021306;28;20210;-77
2021/04/26 04:20:07;;;;;;;4.80;1.70;;;1.30;99.90;;;;;;5022717;28;20237;-77
2021/04/26 04:22:33;;;;;;;2.00;1.80;;;1.30;99.90;;;;;;5021903;28;20211;-78
2021/04/26 04:25:01;;;;;;;2.57;1.57;;;1.30;99.90;;;;;;5021905;28;20623;-77
2021/04/26 04:27:27;;;;;;;2.77;1.80;;;1.30;99.90;;;;;;5022030;28;20210;-77
2021/04/26 04:29:53;;;;;;;4.30;2.10;;;1.30;99.90;;;;;;5022516;28;20213;-78
2021/04/26 04:32:19;;;;;;;3.37;2.50;;;1.30;99.90;;;;;;5021403;28;20262;-77
2021/04/26 04:34:46;;;;;;;5.07;3.10;;;1.30;99.90;;;;;;5021821;28;20230;-76
2021/04/26 04:37:12;;;;;;;5.10;2.57;;;1.30;99.90;;;;;;5041828;28;20205;-76
2021/04/26 04:39:38;;;;;;;4.33;2.50;;;1.30;99.90;;;;;;5040452;28;20540;-77
2021/04/26 04:42:06;;;;;;;3.37;2.27;;;1.30;99.90;;;;;;5032118;28;20210;-77
2021/04/26 04:44:32;;;;;;;6.43;2.30;;;1.30;99.90;;;;;;5021688;28;20256;-77
2021/04/26 04:46:58;;;;;;;3.80;2.10;;;1.40;99.90;;;;;;5021681;28;20206;-77
2021/04/26 04:49:25;;;;;;;5.57;2.30;;;1.40;99.90;;;;;;5022123;28;20956;-76
2021/04/26 04:51:51;;;;;;;3.17;1.80;;;1.40;99.90;;;;;;5021801;28;20268;-79
2021/04/26 04:54:18;;;;;;;3.77;2.07;;;1.40;99.90;;;;;;5021111;28;20627;-78
2021/04/26 04:56:44;;;;;;;2.77;2.10;;;1.50;99.90;;;;;;5021528;28;20296;-78
2021/04/26 04:59:11;;;;;;;4.70;2.20;;;1.50;99.90;;;;;;5021577;28;20202;-77
2021/04/26 05:01:38;;;;;;;2.53;1.80;;;1.50;99.90;;;;;;5021493;28;20203;-75
2021/04/26 05:04:04;;;;;;;6.00;2.20;;;1.50;99.90;;;;;;5022214;28;20218;-78
2021/04/26 05:06:31;;;;;;;2.70;1.90;;;1.50;99.90;;;;;;5020591;28;20201;-77
2021/04/26 05:08:57;;;;;;;2.77;1.83;;;1.60;99.90;;;;;;5021277;28;20202;-78
2021/04/26 05:11:24;;;;;;;4.77;2.33;;;1.60;99.90;;;;;;5020926;28;20203;-78
2021/04/26 05:13:50;;;;;;;3.07;2.30;;;1.60;99.90;;;;;;5020001;28;20615;-77
2021/04/26 05:16:17;;;;;;;4.17;2.07;;;1.60;99.90;;;;;;5029043;28;20598;-77
2021/04/26 05:18:43;;;;;;;6.93;3.00;;;1.70;99.90;;;;;;5042167;28;20205;-76
2021/04/26 05:21:10;;;;;;;4.73;2.10;;;1.70;99.90;;;;;;5039460;28;20598;-76
2021/04/26 05:23:36;;;;;;;4.57;2.03;;;1.80;99.90;;;;;;5025228;28;20203;-75
2021/04/26 05:26:03;;;;;;;3.50;2.00;;;1.80;99.90;;;;;;5025536;28;20203;-76
2021/04/26 05:28:29;;;;;;;4.33;2.17;;;1.90;99.90;;;;;;5024654;28;20206;-76
2021/04/26 05:30:55;;;;;;;4.77;2.37;;;1.90;99.90;;;;;;5025735;28;20252;-75
2021/04/26 05:33:22;;;;;;;4.00;2.53;;;1.90;99.90;;;;;;5025159;28;20233;-76
2021/04/26 05:35:48;;;;;;;3.67;1.93;;;2.00;99.90;;;;;;5025033;28;20214;-76
2021/04/26 05:38:16;;;;;;;2.87;2.07;;;2.00;99.90;;;;;;5025030;28;20194;-76
2021/04/26 05:40:45;;;;;;;5.20;2.77;;;2.10;99.90;;;;;;5024977;28;20223;-76
2021/04/26 05:43:11;;;;;;;3.63;2.53;;;2.10;99.90;;;;;;5025014;28;20850;-76
2021/04/26 05:45:37;;;;;;;3.13;1.93;;;2.20;99.90;;;;;;5024581;28;20226;-76
2021/04/26 05:48:05;;;;;;;7.27;2.33;;;2.30;99.90;;;;;;5025008;28;20210;-76
2021/04/26 05:50:32;;;;;;;5.20;2.40;;;2.30;99.90;;;;;;5044078;28;20205;-76
2021/04/26 05:52:59;;;;;;;4.13;2.23;;;2.40;99.90;;;;;;5044638;28;20308;-77
2021/04/26 05:55:25;;;;;;;7.07;2.20;;;2.60;99.90;;;;;;5038721;28;20297;-76
2021/04/26 05:57:51;;;;;;;4.77;2.30;;;2.70;99.90;;;;;;5024791;28;20210;-75
2021/04/26 06:00:18;;;;;;;6.70;3.00;;;2.90;99.90;;;;;;5025046;28;20217;-75
2021/04/26 06:02:45;;;;;;;3.57;2.40;;;3.10;99.90;;;;;;5024392;28;20292;-76
2021/04/26 06:05:11;;;;;;;12.93;3.60;;;3.30;99.90;;;;;;5024700;28;20704;-76
2021/04/26 06:07:39;;;;;;;7.10;2.73;;;3.50;99.90;;;;;;5024566;28;20540;-77
2021/04/26 06:10:06;;;;;;;8.87;2.50;;;3.70;99.90;;;;;;5024619;28;20365;-76
2021/04/26 06:12:33;;;;;;;5.20;2.30;;;3.90;99.90;;;;;;5024665;28;20203;-76
2021/04/26 06:14:59;;;;;;;9.77;2.40;;;4.20;99.90;;;;;;5024554;28;20279;-76
2021/04/26 06:17:25;;;;;;;10.20;2.70;;;4.30;99.90;;;;;;5023385;28;20206;-76
2021/04/26 06:19:52;;;;;;;7.27;2.07;;;4.50;99.90;;;;;;5024115;28;20206;-76
2021/04/26 06:22:18;;;;;;;7.10;2.00;;;4.70;99.90;;;;;;5024047;28;20198;-77
2021/04/26 06:24:45;;;;;;;4.90;1.60;;;5.00;99.90;;;;;;5041415;28;20213;-77
2021/04/26 06:27:12;;;;;;;4.07;1.87;;;5.20;99.90;;;;;;5044184;28;20201;-76
2021/04/26 06:29:38;;;;;;;6.23;1.57;;;5.50;99.90;;;;;;5042034;28;20624;-77
2021/04/26 06:32:05;;;;;;;5.70;2.13;;;5.60;99.90;;;;;;5043081;28;20252;-78
2021/04/26 06:34:31;;;;;;;6.80;2.60;;;5.90;99.90;;;;;;5043918;28;20222;-77
2021/04/26 06:36:57;;;;;;;4.53;2.47;;;6.10;99.90;;;;;;5040542;28;20256;-77
2021/04/26 06:39:24;;;;;;;6.77;1.80;;;6.40;99.90;;;;;;5023227;28;20544;-77
2021/04/26 06:41:51;;;;;;;2.80;1.70;;;6.70;99.90;;;;;;5023385;28;20698;-77
2021/04/26 06:44:17;;;;;;;2.73;1.60;;;7.00;99.90;;;;;;5023648;28;20202;-77
2021/04/26 06:50:06;;;;;;;6.23;1.90;;;7.60;99.90;;;;;;5003169;28;20186;-78
2021/04/26 06:52:33;;;;;;;3.93;1.87;;;8.10;99.90;;;;;;5022946;28;20201;-77
2021/04/26 06:54:59;;;;;;;4.30;2.30;;;8.30;99.90;;;;;;5023943;28;20231;-77
2021/04/26 06:57:26;;;;;;;4.57;2.10;;;8.50;99.90;;;;;;5023617;28;20199;-76
2021/04/26 06:59:53;;;;;;;5.30;1.83;;;8.70;99.90;;;;;;5023129;28;20747;-77
2021/04/26 07:02:19;;;;;;;8.13;1.67;;;8.90;99.90;;;;;;5021924;28;20253;-77
2021/04/26 07:08:12;;;;;;;5.43;2.30;;;9.30;99.90;;;;;;4967066;28;20222;-77
2021/04/26 07:10:39;;;;;;;3.67;1.50;;;9.40;99.90;;;;;;5022835;28;20191;-76
2021/04/26 07:13:06;;;;;;;4.77;1.10;;;9.70;99.90;;;;;;5022339;28;20198;-76
2021/04/26 07:15:32;;;;;;;7.27;1.87;;;10.00;99.90;;;;;;5023412;28;20233;-76
2021/04/26 07:17:59;;;;;;;6.43;2.03;;;10.10;99.90;;;;;;5023411;28;20210;-75
2021/04/26 07:20:25;;;;;;;3.43;1.30;;;10.10;99.90;;;;;;5022662;28;20202;-76
2021/04/26 07:22:51;;;;;;;6.93;1.73;;;10.10;99.90;;;;;;5023295;28;20579;-75
2021/04/26 07:25:18;;;;;;;7.10;1.67;;;10.20;99.90;;;;;;5023065;28;20203;-77
2021/04/26 07:27:44;;;;;;;4.53;1.20;;;10.50;99.90;;;;;;5022927;28;20252;-77
2021/04/26 07:30:13;;;;;;;4.37;1.10;;;10.60;99.90;;;;;;5023326;28;20622;-76
2021/04/26 07:32:41;;;;;;;3.73;1.03;;;10.90;99.90;;;;;;5023171;28;20253;-76
2021/04/26 07:35:11;;;;;;;1.90;0.90;;;10.70;99.90;;;;;;5022133;28;20277;-77
2021/04/26 07:37:37;;;;;;;2.90;1.40;;;10.80;99.90;;;;;;5022251;28;20841;-76
2021/04/26 07:40:05;;;;;;;3.97;1.20;;;11.20;99.90;;;;;;5023160;28;20205;-76
2021/04/26 07:42:32;;;;;;;5.80;1.20;;;11.50;99.90;;;;;;5021690;28;20268;-77
2021/04/26 07:44:58;;;;;;;3.50;1.70;;;11.60;99.90;;;;;;5022498;28;20221;-76
2021/04/26 07:47:26;;;;;;;4.80;1.50;;;11.60;99.90;;;;;;5022387;28;20315;-76
2021/04/26 07:49:52;;;;;;;3.33;1.00;;;11.80;99.90;;;;;;5021469;28;20257;-76
2021/04/26 07:52:18;;;;;;;1.47;0.80;;;11.90;99.90;;;;;;5022911;28;20854;-76
2021/04/26 07:54:45;;;;;;;2.80;0.73;;;11.80;99.90;;;;;;5022191;28;20230;-77
2021/04/26 07:57:11;;;;;;;3.07;0.90;;;11.80;99.90;;;;;;5022223;28;20206;-77
2021/04/26 07:59:37;;;;;;;2.87;1.17;;;12.00;99.90;;;;;;5022470;28;20202;-77
2021/04/26 08:02:04;;;;;;;3.87;1.20;;;11.80;99.90;;;;;;5021576;28;20235;-77
2021/04/26 08:04:31;;;;;;;3.03;0.97;;;11.50;99.90;;;;;;5022962;28;20207;-77
2021/04/26 08:06:57;;;;;;;1.93;1.30;;;11.50;99.90;;;;;;5022817;28;20214;-76
2021/04/26 08:09:23;;;;;;;2.10;1.10;;;11.90;99.90;;;;;;5022240;28;20245;-77
2021/04/26 08:11:50;;;;;;;3.33;1.17;;;12.00;99.90;;;;;;5022322;28;20234;-77
2021/04/26 08:14:16;;;;;;;2.13;0.87;;;12.10;99.90;;;;;;5022419;28;20234;-77
2021/04/26 08:16:43;;;;;;;1.80;1.10;;;12.50;99.90;;;;;;5021429;28;20354;-79
2021/04/26 08:19:10;;;;;;;4.60;0.90;;;13.10;99.90;;;;;;5022435;28;20214;-78
2021/04/26 08:21:38;;;;;;;4.87;1.33;;;13.30;99.90;;;;;;5021536;28;20221;-77
2021/04/26 08:24:06;;;;;;;1.93;1.10;;;13.60;99.90;;;;;;5021376;28;20201;-78
2021/04/26 08:26:32;;;;;;;3.33;1.43;;;13.20;99.90;;;;;;5021466;28;20252;-77
2021/04/26 08:28:58;;;;;;;1.40;1.00;;;13.50;99.90;;;;;;5022104;28;20206;-78
2021/04/26 08:31:24;;;;;;;4.53;1.10;;;13.70;99.90;;;;;;5021556;28;20202;-78
2021/04/26 08:33:51;;;;;;;2.43;1.03;;;13.50;99.90;;;;;;5021951;28;20284;-78
2021/04/26 08:36:17;;;;;;;2.80;1.20;;;13.10;99.90;;;;;;5021128;28;20210;-78
2021/04/26 08:38:44;;;;;;;3.97;1.43;;;13.10;99.90;;;;;;5021437;28;20222;-77
2021/04/26 08:41:13;;;;;;;4.43;1.53;;;13.00;99.90;;;;;;5021611;28;20520;-78
2021/04/26 08:43:40;;;;;;;4.23;1.13;;;13.10;99.90;;;;;;5021007;28;20203;-78
2021/04/26 08:46:07;;;;;;;4.27;1.40;;;13.40;99.90;;;;;;5035183;28;20240;-76
2021/04/26 08:48:33;;;;;;;4.37;1.20;;;13.50;99.90;;;;;;5041743;28;20198;-77
2021/04/26 08:51:00;;;;;;;5.03;1.30;;;13.50;99.90;;;;;;5041573;28;20202;-78
2021/04/26 08:53:27;;;;;;;4.37;0.93;;;13.40;99.90;;;;;;5025745;28;20732;-77
2021/04/26 08:55:54;;;;;;;3.10;1.47;;;13.40;99.90;;;;;;5025273;28;20206;-78
2021/04/26 08:58:21;;;;;;;4.40;1.57;;;13.10;99.90;;;;;;5024991;28;20214;-78
2021/04/26 09:00:47;;;;;;;3.57;1.30;;;13.10;99.90;;;;;;5025571;28;20255;-77
2021/04/26 09:03:14;;;;;;;3.50;1.70;;;13.20;99.90;;;;;;5025588;28;20234;-77
2021/04/26 09:05:44;;;;;;;4.30;1.07;;;13.30;99.90;;;;;;5023514;28;20214;-77
2021/04/26 09:08:13;;;;;;;5.70;1.80;;;13.30;99.90;;;;;;5025991;28;20199;-77
2021/04/26 09:10:45;;;;;;;7.67;1.43;;;13.40;99.90;;;;;;5044574;28;20969;-76
2021/04/26 09:13:31;;;;;;;4.00;1.03;;;13.70;99.90;;;;;;5045339;28;20206;-77
2021/04/26 09:16:00;;;;;;;3.63;1.10;;;13.70;99.90;;;;;;5041246;28;20670;-76
2021/04/26 09:18:44;;;;;;;4.67;1.77;;;13.70;99.90;;;;;;5025975;28;20667;-76
2021/04/26 09:21:16;;;;;;;3.13;0.93;;;13.90;99.90;;;;;;5025382;28;20257;-76
2021/04/26 09:23:44;;;;;;;4.37;1.60;;;14.30;99.90;;;;;;5025364;28;20225;-76
2021/04/26 09:26:24;;;;;;;2.07;1.30;;;14.80;99.90;;;;;;5025799;28;20834;-77
2021/04/26 09:29:11;;;;;;;4.13;1.13;;;14.70;99.90;;;;;;5025044;28;20498;-78
2021/04/26 09:31:38;;;;;;;4.30;1.40;;;14.50;99.90;;;;;;5025284;28;20243;-78
2021/04/26 09:34:04;;;;;;;4.43;1.33;;;14.40;99.90;;;;;;5024639;28;20237;-77
2021/04/26 09:36:32;;;;;;;5.23;1.50;;;14.20;99.90;;;;;;5037860;28;20243;-78
2021/04/26 09:39:03;;;;;;;2.37;1.20;;;14.00;99.90;;;;;;5045113;28;20233;-77
2021/04/26 09:41:30;;;;;;;4.57;1.50;;;13.90;99.90;;;;;;5042546;28;20206;-77
2021/04/26 09:44:09;;;;;;;3.23;1.33;;;13.90;99.90;;;;;;5033669;28;20204;-77
2021/04/26 09:46:41;;;;;;;5.90;1.27;;;14.00;99.90;;;;;;5032466;28;20218;-77
2021/04/26 09:49:09;;;;;;;5.77;1.40;;;13.90;99.90;;;;;;5024750;28;20199;-77
2021/04/26 09:51:36;;;;;;;3.47;1.40;;;13.70;99.90;;;;;;5044009;28;20216;-76
2021/04/26 09:54:04;;;;;;;4.90;1.63;;;13.50;99.90;;;;;;5044479;28;20227;-77
2021/04/26 09:56:38;;;;;;;3.27;1.20;;;13.50;99.90;;;;;;5024212;28;20871;-76
2021/04/26 09:59:04;;;;;;;5.80;1.40;;;13.40;99.90;;;;;;5024885;28;20611;-76
2021/04/26 10:01:31;;;;;;;3.63;1.20;;;13.60;99.90;;;;;;5044805;28;20218;-77
2021/04/26 10:04:00;;;;;;;7.07;1.40;;;13.50;99.90;;;;;;5033278;28;20249;-76
2021/04/26 10:06:26;;;;;;;2.23;1.10;;;13.50;99.90;;;;;;5024473;28;20213;-77
2021/04/26 10:08:55;;;;;;;2.07;1.10;;;13.60;99.90;;;;;;5023944;28;20214;-77
2021/04/26 10:11:24;;;;;;;4.90;1.40;;;13.70;99.90;;;;;;5024458;28;20202;-77
2021/04/26 10:13:51;;;;;;;2.97;1.37;;;14.00;99.90;;;;;;5024607;28;20573;-77
2021/04/26 10:16:22;;;;;;;6.43;1.40;;;14.20;99.90;;;;;;5024368;28;20203;-78
2021/04/26 10:18:57;;;;;;;6.73;1.93;;;14.30;99.90;;;;;;5024336;28;20251;-78
2021/04/26 10:21:33;;;;;;;2.17;1.40;;;14.20;99.90;;;;;;5024021;28;20213;-77
2021/04/26 10:24:14;;;;;;;4.57;1.27;;;14.20;99.90;;;;;;5023227;28;20619;-77
2021/04/26 10:26:50;;;;;;;4.60;1.30;;;14.20;99.90;;;;;;5024192;28;20217;-77
2021/04/26 10:29:19;;;;;;;2.90;1.27;;;14.20;99.90;;;;;;5023706;28;20245;-76
2021/04/26 10:32:06;;;;;;;5.13;2.00;;;14.30;99.90;;;;;;5023640;28;20875;-77
2021/04/26 10:34:34;;;;;;;3.53;1.37;;;14.40;99.90;;;;;;5023897;28;21021;-77
2021/04/26 10:37:03;;;;;;;5.07;1.40;;;14.50;99.90;;;;;;5024136;28;20214;-76
2021/04/26 10:39:32;;;;;;;4.57;1.53;;;14.30;99.90;;;;;;5023556;28;20221;-76
2021/04/26 10:42:10;;;;;;;4.33;1.33;;;14.10;99.90;;;;;;5024003;28;20516;-76
2021/04/26 10:44:53;;;;;;;5.77;1.60;;;14.20;99.90;;;;;;5022997;28;20770;-75
2021/04/26 10:47:25;;;;;;;3.13;1.20;;;14.20;99.90;;;;;;5023497;28;20535;-76
2021/04/26 10:49:53;;;;;;;3.03;1.33;;;14.60;99.90;;;;;;5023839;28;20202;-76
2021/04/26 10:52:38;;;;;;;2.83;1.47;;;14.60;99.90;;;;;;5022996;28;20426;-77
2021/04/26 10:55:09;;;;;;;4.93;1.43;;;14.50;99.90;;;;;;5023353;28;20230;-77
2021/04/26 10:57:39;;;;;;;4.10;1.60;;;14.30;99.90;;;;;;5022525;28;20214;-78
2021/04/26 11:00:43;;;;;;;4.23;1.57;;;14.40;99.90;;;;;;5022667;28;20297;-78
2021/04/26 11:03:35;;;;;;;4.47;1.57;;;14.20;99.90;;;;;;5023009;28;20248;-77
2021/04/26 11:06:15;;;;;;;5.27;1.70;;;13.50;99.90;;;;;;5022061;28;20202;-78
2021/04/26 11:08:46;;;;;;;4.97;1.40;;;13.60;99.90;;;;;;5022903;28;20202;-78
2021/04/26 11:11:16;;;;;;;6.03;1.60;;;13.80;99.90;;;;;;5023109;28;20621;-77
2021/04/26 11:13:53;;;;;;;3.63;1.60;;;14.00;99.90;;;;;;5021983;28;20230;-78
2021/04/26 11:16:22;;;;;;;5.17;1.70;;;14.50;99.90;;;;;;5021787;28;20206;-77
2021/04/26 11:19:08;;;;;;;3.57;1.40;;;14.60;99.90;;;;;;5023203;28;20207;-78
2021/04/26 11:22:02;;;;;;;4.83;1.90;;;14.60;99.90;;;;;;5021779;28;20630;-79
2021/04/26 11:24:51;;;;;;;3.60;1.43;;;14.10;99.90;;;;;;5009294;28;20222;-75
2021/04/26 11:27:19;;;;;;;6.57;2.33;;;14.20;99.90;;;;;;5011364;28;20987;-79
2021/04/26 11:30:33;;;;;;;5.10;1.50;;;14.40;99.90;;;;;;5022852;28;20219;-79
2021/04/26 11:33:19;;;;;;;6.53;1.87;;;14.70;99.90;;;;;;5022489;28;20277;-80
2021/04/26 11:36:12;;;;;;;6.10;1.90;;;14.70;99.90;;;;;;5022286;28;20302;-76
2021/04/26 11:38:40;;;;;;;4.13;1.70;;;15.00;99.90;;;;;;5038544;28;20792;-78
2021/04/26 11:41:08;;;;;;;4.80;1.63;;;15.20;99.90;;;;;;5042163;28;20202;-77
2021/04/26 11:43:42;;;;;;;3.67;1.63;;;15.30;99.90;;;;;;5042440;28;20198;-77
2021/04/26 11:46:09;;;;;;;2.67;1.70;;;15.10;99.90;;;;;;5042408;28;20824;-77
2021/04/26 11:48:36;;;;;;;6.00;1.87;;;15.00;99.90;;;;;;5022760;28;20214;-77
2021/04/26 11:51:03;;;;;;;6.13;2.10;;;15.10;99.90;;;;;;5022574;28;20199;-76
2021/04/26 11:53:31;;;;;;;4.87;1.77;;;15.10;99.90;;;;;;5022213;28;20261;-77
2021/04/26 11:56:12;;;;;;;5.27;1.90;;;15.20;99.90;;;;;;5021423;28;20210;-77
2021/04/26 11:58:39;;;;;;;6.70;2.30;;;15.10;99.90;;;;;;5021661;28;20197;-81
2021/04/26 12:01:07;;;;;;;3.83;2.03;;;15.20;99.90;;;;;;5022237;28;20206;-76
2021/04/26 12:03:53;;;;;;;4.30;1.90;;;14.70;99.90;;;;;;5021600;28;20768;-78
2021/04/26 12:06:20;;;;;;;4.10;1.70;;;14.80;99.90;;;;;;5022296;28;20911;-76
2021/04/26 12:08:47;;;;;;;4.47;1.73;;;14.90;99.90;;;;;;5021916;28;20210;-77
2021/04/26 12:11:15;;;;;;;4.73;1.70;;;14.60;99.90;;;;;;5022602;28;20479;-77
2021/04/26 12:13:41;;;;;;;5.50;2.00;;;14.60;99.90;;;;;;5022423;28;20268;-77
2021/04/26 12:16:08;;;;;;;5.70;1.90;;;14.60;99.90;;;;;;5021975;28;20214;-77
2021/04/26 12:18:34;;;;;;;6.03;2.30;;;14.70;99.90;;;;;;5022153;28;20545;-76
2021/04/26 12:21:00;;;;;;;6.10;2.00;;;14.70;99.90;;;;;;5023018;28;20202;-77
2021/04/26 12:23:27;;;;;;;5.10;2.00;;;14.40;99.90;;;;;;5021810;28;20210;-76
2021/04/26 12:25:53;;;;;;;2.40;1.40;;;14.10;99.90;;;;;;5022456;28;20569;-77
2021/04/26 12:28:20;;;;;;;3.60;1.80;;;14.20;99.90;;;;;;5022064;28;20218;-78
2021/04/26 12:30:48;;;;;;;3.77;1.63;;;14.30;99.90;;;;;;5021701;28;20198;-78
2021/04/26 12:33:22;;;;;;;4.63;2.00;;;14.10;99.90;;;;;;5021724;28;20194;-80
2021/04/26 12:35:49;;;;;;;5.70;2.00;;;14.30;99.90;;;;;;5022070;28;20200;-78
2021/04/26 12:38:15;;;;;;;5.80;1.90;;;14.30;99.90;;;;;;5021855;28;20199;-77
2021/04/26 12:40:42;;;;;;;2.80;1.80;;;14.30;99.90;;;;;;5021568;28;20214;-77
2021/04/26 12:43:10;;;;;;;6.50;2.40;;;14.30;99.90;;;;;;5021583;28;20210;-76
2021/04/26 12:45:39;;;;;;;5.67;2.20;;;14.30;99.90;;;;;;5021368;28;20218;-77
2021/04/26 12:48:07;;;;;;;5.53;2.10;;;14.30;99.90;;;;;;5022301;28;20238;-78
2021/04/26 12:50:36;;;;;;;4.97;2.60;;;14.30;99.90;;;;;;5021589;28;20213;-76
2021/04/26 12:53:14;;;;;;;6.73;2.00;;;14.20;99.90;;;;;;5021759;28;20207;-76
2021/04/26 12:55:47;;;;;;;3.53;1.73;;;14.10;99.90;;;;;;5026620;28;20225;-78
2021/04/26 12:58:16;;;;;;;2.83;1.70;;;14.10;99.90;;;;;;5034569;28;20214;-77
2021/04/26 13:00:50;;;;;;;4.37;2.07;;;14.30;99.90;;;;;;5046688;28;20858;-76
2021/04/26 13:03:28;;;;;;;5.50;1.87;;;14.50;99.90;;;;;;5040681;28;20267;-76
2021/04/26 13:05:58;;;;;;;4.50;2.40;;;14.40;99.90;;;;;;5039658;28;20229;-76
2021/04/26 13:08:26;;;;;;;7.40;2.20;;;14.60;99.90;;;;;;5024050;28;20210;-76
2021/04/26 13:10:53;;;;;;;4.70;1.93;;;14.50;99.90;;;;;;5059771;28;20266;-75